Flight Track Log - Related Links

Times and Time Zones

All times are in EDT time to prevent confusion due to time zone crossing. See the N567GJ flight status page for this flight to view local times or setup timezone preferences in your user account.

Time Position Orientation Groundspeed Altitude Reporting Facility
EDT Latitude Longitude Course Direction KTS MPH feet Rate Location/Type
Sun 02:21:34 PM 41.3833 -84.1769 271° West 151 174 3,100  Level Chicago Center
Sun 02:22:36 PM 41.3844 -84.2375 271° West 163 188 3,900 919 Climbing Chicago Center
Sun 02:23:38 PM 41.3883 -84.2967 275° West 163 188 5,000 1,210 Climbing Chicago Center
Sun 02:24:40 PM 41.3922 -84.3642 274° West 157 181 6,400 1,210 Climbing Chicago Center
Sun 02:25:42 PM 41.3950 -84.4150 274° West 148 170 7,500 919 Climbing Chicago Center
Sun 02:26:44 PM 41.3978 -84.4683 274° West 145 167 8,300 919 Climbing Chicago Center
Sun 02:27:46 PM 41.4000 -84.5256 273° West 150 173 9,400 919 Climbing Chicago Center
Sun 02:28:48 PM 41.4028 -84.5814 274° West 151 174 10,200 823 Climbing Chicago Center
Sun 02:29:50 PM 41.4061 -84.6394 274° West 154 177 11,100 968 Climbing Chicago Center
Sun 02:30:52 PM 41.4086 -84.7069 273° West 153 176 12,200 871 Climbing Chicago Center
Sun 02:31:54 PM 41.4108 -84.7603 273° West 146 168 12,900 726 Climbing Chicago Center
Sun 02:32:56 PM 41.4144 -84.8136 275° West 146 168 13,700 532 Climbing Chicago Center
Sun 02:33:58 PM 41.4164 -84.8658 273° West 144 166 14,000 145 Climbing Chicago Center
Sun 02:35:00 PM 41.4200 -84.9286 274° West 166 191 14,000  Level Chicago Center
Sun 02:36:02 PM 41.4233 -84.9950 274° West 178 205 14,000  Level Chicago Center
Sun 02:37:05 PM 41.4269 -85.0781 273° West 187 215 14,000  Level Chicago Center
Sun 02:38:07 PM 41.4322 -85.1511 276° West 195 224 14,000  Level Chicago Center
Sun 02:39:09 PM 41.4342 -85.2242 272° West 198 228 14,000  Level Chicago Center
Sun 02:40:11 PM 41.4392 -85.2994 275° West 202 232 14,000  Level Chicago Center
Sun 02:41:13 PM 41.4419 -85.3750 273° West 202 232 14,000  Level Chicago Center
Sun 02:42:15 PM 41.4456 -85.4497 274° West 202 232 14,000  Level Chicago Center
Sun 02:43:17 PM 41.4492 -85.5253 274° West 203 234 14,000  Level Chicago Center
Sun 02:44:19 PM 41.4528 -85.6142 273° West 200 230 14,000  Level Chicago Center
Sun 02:45:21 PM 41.4558 -85.6892 273° West 201 231 14,000  Level Chicago Center
Sun 02:46:23 PM 41.4597 -85.7633 274° West 201 231 14,000  Level Chicago Center
Sun 02:47:25 PM 41.4617 -85.8386 272° West 202 232 14,000 -435 Level Chicago Center
Sun 02:48:27 PM 41.4644 -85.9172 273° West 208 239 13,100 -484 Descending Chicago Center
Sun 02:49:29 PM 41.4692 -86.0000 274° West 221 254 13,000 -581 Descending Chicago Center
Sun 02:50:31 PM 41.4725 -86.0936 273° West 213 245 11,900 -1,008 Descending Chicago Center
Sun 02:51:34 PM 41.4764 -86.1769 274° West 220 253 10,900 -864 Descending Chicago Center
Sun 02:52:36 PM 41.4806 -86.2569 274° West 220 253 10,100 -435 Descending Chicago Center
Sun 02:53:38 PM 41.4836 -86.3353 273° West 217 250 10,000 -194 Descending Chicago Center
Sun 02:54:40 PM 41.4853 -86.4072 272° West 206 237 9,700 -774 Descending Chicago Center
Sun 02:55:42 PM 41.4856 -86.4858 270° West 206 237 8,400 -1,258 Descending Chicago Center
Sun 02:56:44 PM 41.4908 -86.5856 274° West 217 250 7,100 -968 Descending Chicago Center
Sun 02:57:46 PM 41.4958 -86.6644 275° West 217 250 6,400 -774 Descending Chicago Center
Sun 02:58:48 PM 41.4958 -86.7394 270° West 211 243 5,500 -677 Descending Chicago Center
Sun 02:59:50 PM 41.5039 -86.8125 278° West 204 235 5,000 -532 Descending Chicago Center
Sun 03:00:52 PM 41.5117 -86.8894 278° West 199 229 4,400 -532 Descending Chicago Center
Sun 03:01:54 PM 41.5183 -86.9567 278° West 199 229 3,900 -581 Descending Chicago Center
Sun 03:02:56 PM 41.5283 -87.0378 279° West 197 227 3,200 -284 Descending Chicago Center
Sun 03:05:25 PM 41.5500 -87.2167 279° West 184 212 2,900 -402 Descending Chicago TRACON
Sun 03:06:25 PM 41.5333 -87.2833 252° West 190 219 1,800 -1,100 Descending Chicago TRACON

Login

Don't have an account? Register now (free) for customized features, flight alerts, and more!